»·PEaware :: ASA1324 KPDX-KSFO

ASA1324 :: KPDX-KSFO

FLIGHT INFORMATION

Flight Status: Arrived
Operator:
Alaska Airlines
More flights by this operator :: More flights under this callsign
Pilot: Jamyson D. (13674)
Aircraft: AIRBUS A320
(A320)
More flights by this aircraft type
Origin: KPDX Portland Intl
United States
Destination: KSFO San Francisco Intl
United States
More flights between these airports :: More routes between these airports
Route: MINNE5 FAMUK Q3 FOWND MLBEC BDEGA3
File this flight plan on PilotEdge
Remarks:
Altitude:
(Current/Filed)
37,000ft
Speed:
(Current/Filed)
442kts
Departed: 11-Oct-18 06:25 PM
Arrived: 11-Oct-18 07:47 PM
Distance/Time
Traveled:
478nm/1:22
Distance/Time
To Go:
Arrived

Flight Plot

Page will automatically refresh every two minutes.

Flight plan parsing failed; only flown route is shown


Map Options




Map Legend


Flown Route
Filed Route
Departure Airport
Arrival Airport
Navaid (VOR, NDB)
Fix

Horizontal Profiles

Position Reports

Time Latitude Longitude Heading Altitude Ground
Speed
11-Oct-18 18:07 45.588810 -122.597420 29 38ft 0kts
11-Oct-18 18:08 45.588810 -122.597420 29 38ft 0kts
11-Oct-18 18:09 45.588810 -122.597420 29 38ft 0kts
11-Oct-18 18:10 45.588810 -122.597420 29 38ft 0kts
11-Oct-18 18:11 45.588810 -122.597420 29 38ft 0kts
11-Oct-18 18:12 45.588810 -122.597420 29 38ft 0kts
11-Oct-18 18:13 45.588810 -122.597420 29 38ft 0kts
11-Oct-18 18:14 45.588810 -122.597420 29 38ft 0kts
11-Oct-18 18:15 45.588810 -122.597420 29 38ft 0kts
11-Oct-18 18:16 45.588548 -122.597644 42 38ft 2kts
11-Oct-18 18:17 45.588323 -122.598395 93 38ft 2kts
11-Oct-18 18:18 45.588423 -122.598840 119 38ft 0kts
11-Oct-18 18:19 45.588423 -122.598839 119 38ft 0kts
11-Oct-18 18:20 45.588319 -122.598581 119 38ft 7kts
11-Oct-18 18:21 45.586286 -122.593639 123 38ft 16kts
11-Oct-18 18:22 45.583513 -122.588262 115 38ft 17kts
11-Oct-18 18:23 45.581721 -122.583811 127 38ft 2kts
11-Oct-18 18:24 45.581435 -122.583520 186 38ft 0kts
11-Oct-18 18:25 45.581435 -122.583520 186 38ft 0kts
11-Oct-18 18:26 45.580700 -122.583993 224 38ft 5kts
11-Oct-18 18:27 45.584279 -122.593532 299 38ft 126kts
11-Oct-18 18:28 45.606830 -122.652099 297 3000ft 180kts
11-Oct-18 18:29 45.635071 -122.718013 302 5138ft 245kts
11-Oct-18 18:30 45.669895 -122.808249 282 8038ft 281kts
11-Oct-18 18:31 45.640920 -122.911477 214 10843ft 321kts
11-Oct-18 18:32 45.548931 -122.931731 184 12657ft 369kts
11-Oct-18 18:33 45.451691 -122.942303 184 14957ft 384kts
11-Oct-18 18:34 45.345196 -122.954571 184 17154ft 399kts
11-Oct-18 18:35 45.234755 -122.967380 185 19145ft 412kts
11-Oct-18 18:36 45.125937 -122.991341 190 20889ft 424kts
11-Oct-18 18:37 45.015098 -123.017152 188 22438ft 436kts
11-Oct-18 18:38 44.897770 -123.044372 188 23935ft 447kts
11-Oct-18 18:39 44.782737 -123.070963 188 25215ft 457kts
11-Oct-18 18:40 44.658165 -123.099637 188 26478ft 467kts
11-Oct-18 18:41 44.535693 -123.127710 188 27608ft 475kts
11-Oct-18 18:42 44.410698 -123.132701 176 28629ft 482kts
11-Oct-18 18:43 44.278147 -123.127917 176 29617ft 490kts
11-Oct-18 18:44 44.143226 -123.123120 176 30523ft 498kts
11-Oct-18 18:45 43.984363 -123.117486 176 31848ft 497kts
11-Oct-18 18:46 43.875511 -123.113648 176 32701ft 497kts
11-Oct-18 18:47 43.745030 -123.109068 176 33613ft 497kts
11-Oct-18 18:48 43.608439 -123.104298 176 34536ft 495kts
11-Oct-18 18:49 43.472752 -123.099576 176 35423ft 494kts
11-Oct-18 18:50 43.336164 -123.094849 176 36255ft 492kts
11-Oct-18 18:51 43.203947 -123.090293 176 36945ft 492kts
11-Oct-18 18:52 43.069353 -123.085675 176 37060ft 492kts
11-Oct-18 18:53 42.933166 -123.081021 174 37058ft 496kts
11-Oct-18 18:54 42.799819 -123.076489 173 37050ft 498kts
11-Oct-18 18:55 42.661539 -123.071801 173 37042ft 499kts
11-Oct-18 18:56 42.523344 -123.067142 173 37038ft 499kts
11-Oct-18 18:57 42.385499 -123.062613 173 37026ft 499kts
11-Oct-18 18:58 42.247292 -123.058147 173 37020ft 498kts
11-Oct-18 18:59 42.109779 -123.053721 173 37018ft 498kts
11-Oct-18 19:00 41.971567 -123.049298 173 37026ft 498kts
11-Oct-18 19:01 41.841519 -123.045161 173 37045ft 497kts
11-Oct-18 19:02 41.708222 -123.040933 173 37057ft 497kts
11-Oct-18 19:03 41.570588 -123.036578 173 37057ft 497kts
11-Oct-18 19:04 41.433471 -123.032258 173 37068ft 498kts
11-Oct-18 19:05 41.300765 -123.028115 173 37076ft 498kts
11-Oct-18 19:06 41.162486 -123.023939 173 37082ft 499kts
11-Oct-18 19:07 41.024669 -123.019783 172 36999ft 499kts
11-Oct-18 19:08 40.890880 -123.015763 171 36946ft 497kts
11-Oct-18 19:09 40.761917 -123.011907 172 36972ft 491kts
11-Oct-18 19:10 40.627473 -123.007891 172 36948ft 486kts
11-Oct-18 19:11 40.493935 -123.003926 172 36902ft 483kts
11-Oct-18 19:12 40.361325 -123.000002 171 36898ft 483kts
11-Oct-18 19:13 40.228055 -122.996077 172 36915ft 484kts
11-Oct-18 19:14 40.094128 -122.992150 172 36936ft 485kts
11-Oct-18 19:15 39.959996 -122.988231 171 36951ft 486kts
11-Oct-18 19:16 39.832204 -122.984512 172 36952ft 486kts
11-Oct-18 19:17 39.699443 -122.980661 171 36947ft 485kts
11-Oct-18 19:18 39.565505 -122.976791 172 36941ft 486kts
11-Oct-18 19:19 39.431122 -122.972926 172 36944ft 486kts
11-Oct-18 19:20 39.297118 -122.969083 172 36950ft 486kts
11-Oct-18 19:21 39.162585 -122.965242 172 36952ft 487kts
11-Oct-18 19:22 39.028278 -122.961936 172 36050ft 494kts
11-Oct-18 19:23 38.894154 -122.959227 172 33335ft 496kts
11-Oct-18 19:24 38.779262 -122.930690 162 30890ft 487kts
11-Oct-18 19:25 38.650468 -122.892598 162 27942ft 485kts
11-Oct-18 19:26 38.524712 -122.855524 162 26644ft 445kts
11-Oct-18 19:27 38.410114 -122.821794 162 25223ft 417kts
11-Oct-18 19:28 38.299781 -122.789486 162 23298ft 402kts
11-Oct-18 19:29 38.194485 -122.758749 162 20316ft 380kts
11-Oct-18 19:30 38.094769 -122.729768 163 17940ft 365kts
11-Oct-18 19:31 37.997875 -122.701687 163 16029ft 354kts
11-Oct-18 19:32 37.904668 -122.673579 154 14146ft 340kts
11-Oct-18 19:33 37.834926 -122.604878 137 12477ft 321kts
11-Oct-18 19:34 37.770122 -122.536179 137 11266ft 297kts
11-Oct-18 19:35 37.710742 -122.473222 136 11003ft 287kts
11-Oct-18 19:36 37.652921 -122.411765 136 11001ft 286kts
11-Oct-18 19:37 37.592728 -122.357178 149 11006ft 248kts
11-Oct-18 19:38 37.533036 -122.320464 150 9715ft 250kts
11-Oct-18 19:39 37.491717 -122.257277 119 8136ft 243kts
11-Oct-18 19:40 37.456432 -122.186395 119 6524ft 241kts
11-Oct-18 19:41 37.428349 -122.113390 78 4569ft 237kts
11-Oct-18 19:42 37.472892 -122.093472 325 3537ft 215kts
11-Oct-18 19:43 37.517798 -122.138735 308 3109ft 191kts
11-Oct-18 19:44 37.540153 -122.187586 299 2979ft 161kts
11-Oct-18 19:45 37.560320 -122.235758 298 2161ft 152kts
11-Oct-18 19:46 37.577487 -122.276753 297 1460ft 132kts
11-Oct-18 19:47 37.593895 -122.315905 297 796ft 129kts
11-Oct-18 19:48 37.610046 -122.354333 296 141ft 126kts
11-Oct-18 19:49 37.618950 -122.377942 271 21ft 13kts
11-Oct-18 19:50 37.617966 -122.379982 262 21ft 2kts
11-Oct-18 19:51 37.617856 -122.380647 257 21ft 0kts
11-Oct-18 19:52 37.617856 -122.380647 257 21ft 0kts
11-Oct-18 19:53 37.617856 -122.380647 257 21ft 0kts
11-Oct-18 19:54 37.617856 -122.380647 257 21ft 0kts
11-Oct-18 19:55 37.617856 -122.380647 257 21ft 0kts
11-Oct-18 19:56 37.617856 -122.380647 257 21ft 0kts

Navigation Log

Ident Type
Flight plan parsing failed, navigation log unavailable